Time;durP1;ratioP1;P1;durP2;ratioP2;P2;SDS_P1;SDS_P2;PMS_P1;PMS_P2;Temp;Humidity;BMP_temperature;BMP_pressure;BME280_temperature;BME280_humidity;BME280_pressure;Samples;Min_cycle;Max_cycle;Signal;HPM_P1;HPM_P2
2022/08/06 00:00:35;;;;;;;15.47;12.00;;;20.20;99.90;;;;;;5111307;28;20456;-72
2022/08/06 00:03:03;;;;;;;16.33;12.13;;;20.20;99.90;;;;;;5109560;28;20035;-73
2022/08/06 00:05:28;;;;;;;17.42;12.63;;;20.20;99.90;;;;;;5111096;27;20356;-72
2022/08/06 00:07:56;;;;;;;15.03;11.57;;;20.20;99.90;;;;;;5111017;28;20432;-72
2022/08/06 00:10:22;;;;;;;15.68;11.80;;;20.00;99.90;;;;;;5109627;28;20391;-73
2022/08/06 00:12:48;;;;;;;15.55;11.75;;;20.10;99.90;;;;;;5110665;28;20455;-73
2022/08/06 00:15:17;;;;;;;14.33;12.30;;;20.10;99.90;;;;;;5110817;28;20038;-73
2022/08/06 00:17:44;;;;;;;17.80;13.02;;;20.10;99.90;;;;;;5109539;28;20028;-73
2022/08/06 00:20:11;;;;;;;14.35;11.98;;;20.00;99.90;;;;;;5110682;28;20028;-72
2022/08/06 00:22:37;;;;;;;14.23;11.65;;;19.90;99.90;;;;;;5114351;28;20028;-73
2022/08/06 00:25:04;;;;;;;15.38;11.50;;;19.90;99.90;;;;;;5115101;28;20016;-74
2022/08/06 00:27:29;;;;;;;14.77;12.02;;;19.90;99.90;;;;;;5113658;28;20024;-73
2022/08/06 00:29:55;;;;;;;15.17;11.50;;;19.90;99.90;;;;;;5115525;28;20027;-73
2022/08/06 00:32:20;;;;;;;13.27;11.20;;;19.90;99.90;;;;;;5115174;28;20024;-73
2022/08/06 00:34:46;;;;;;;16.50;11.70;;;19.90;99.90;;;;;;5115188;28;20038;-73
2022/08/06 00:37:12;;;;;;;14.30;11.27;;;19.90;99.90;;;;;;5113648;28;20031;-73
2022/08/06 00:39:37;;;;;;;14.43;11.43;;;19.90;99.90;;;;;;5113365;28;20051;-72
2022/08/06 00:42:03;;;;;;;13.27;11.17;;;19.90;99.90;;;;;;5114610;28;20066;-72
2022/08/06 00:44:29;;;;;;;14.27;10.55;;;19.90;99.90;;;;;;5113320;28;20063;-74
2022/08/06 00:46:54;;;;;;;12.43;10.20;;;19.90;99.90;;;;;;5114352;27;20081;-73
2022/08/06 00:49:20;;;;;;;14.50;9.83;;;19.90;99.90;;;;;;5114722;28;20038;-73
2022/08/06 00:51:46;;;;;;;13.00;9.03;;;19.90;99.90;;;;;;5113219;28;20421;-73
2022/08/06 00:54:11;;;;;;;11.20;9.30;;;20.00;99.90;;;;;;5114264;28;20059;-72
2022/08/06 00:56:37;;;;;;;12.93;8.87;;;20.00;99.90;;;;;;5114185;28;20447;-74
2022/08/06 00:59:03;;;;;;;11.80;8.43;;;20.00;99.90;;;;;;5112724;28;20165;-73
2022/08/06 01:01:30;;;;;;;11.52;9.70;;;20.00;99.90;;;;;;5113966;28;20304;-74
2022/08/06 01:03:55;;;;;;;11.95;9.90;;;20.00;99.90;;;;;;5114318;28;20031;-73
2022/08/06 01:06:21;;;;;;;9.87;8.07;;;20.00;99.90;;;;;;5114348;28;20238;-73
2022/08/06 01:08:47;;;;;;;11.40;7.90;;;20.00;99.90;;;;;;5114038;28;20059;-73
2022/08/06 01:11:13;;;;;;;9.70;8.03;;;20.00;99.90;;;;;;5113908;28;20062;-73
2022/08/06 01:13:39;;;;;;;11.27;8.73;;;20.00;99.90;;;;;;5114397;28;20039;-72
2022/08/06 01:16:11;;;;;;;10.45;8.48;;;20.00;99.90;;;;;;5113706;28;20027;-72
2022/08/06 01:19:09;;;;;;;11.38;8.98;;;20.00;99.90;;;;;;5114172;28;20036;-73
2022/08/06 01:21:51;;;;;;;11.10;8.20;;;20.00;99.90;;;;;;5101747;27;20040;-72
2022/08/06 01:24:28;;;;;;;10.77;8.55;;;19.90;99.90;;;;;;5113996;28;20085;-72
2022/08/06 01:27:18;;;;;;;8.95;7.50;;;19.90;99.90;;;;;;5113504;28;20490;-73
2022/08/06 01:29:50;;;;;;;10.93;8.60;;;19.90;99.90;;;;;;5112449;28;20032;-73
2022/08/06 01:32:21;;;;;;;11.75;7.60;;;19.90;99.90;;;;;;5108271;28;20028;-74
2022/08/06 01:34:54;;;;;;;9.25;7.47;;;19.90;99.90;;;;;;5108499;28;20093;-73
2022/08/06 01:37:33;;;;;;;10.38;7.78;;;19.80;99.90;;;;;;5113362;28;20023;-72
2022/08/06 01:40:04;;;;;;;9.23;7.55;;;19.90;99.90;;;;;;5113437;28;20035;-72
2022/08/06 01:42:31;;;;;;;10.50;7.35;;;19.80;99.90;;;;;;5113062;28;20038;-72
2022/08/06 01:45:02;;;;;;;10.32;8.00;;;19.80;99.90;;;;;;5111796;28;20028;-74
2022/08/06 01:47:31;;;;;;;12.85;8.15;;;19.80;99.90;;;;;;5113496;28;20027;-73
2022/08/06 01:50:01;;;;;;;12.55;8.27;;;19.80;99.90;;;;;;5112202;28;20035;-75
2022/08/06 01:52:28;;;;;;;12.00;8.05;;;19.80;99.90;;;;;;5111981;28;20077;-73
2022/08/06 01:54:58;;;;;;;9.77;7.70;;;19.70;99.90;;;;;;5113147;28;20052;-73
2022/08/06 01:57:26;;;;;;;10.63;8.27;;;19.70;99.90;;;;;;5113461;28;20027;-74
2022/08/06 01:59:55;;;;;;;11.35;8.43;;;19.70;99.90;;;;;;5112079;28;20087;-74
2022/08/06 02:02:23;;;;;;;8.73;7.28;;;19.70;99.90;;;;;;5113193;27;20034;-73
2022/08/06 02:04:52;;;;;;;8.73;6.88;;;19.70;99.90;;;;;;5111843;28;20043;-73
2022/08/06 02:07:22;;;;;;;10.15;7.57;;;19.70;99.90;;;;;;5111746;28;20020;-73
2022/08/06 02:09:50;;;;;;;9.38;7.63;;;19.70;99.90;;;;;;5113438;28;20386;-72
2022/08/06 02:12:19;;;;;;;9.00;7.35;;;19.70;99.90;;;;;;5112791;28;20505;-72
2022/08/06 02:15:08;;;;;;;10.10;7.15;;;19.60;99.90;;;;;;5111613;28;20092;-73
2022/08/06 02:17:39;;;;;;;8.98;7.40;;;19.70;99.90;;;;;;5103264;28;20039;-73
2022/08/06 02:20:08;;;;;;;10.68;7.70;;;19.70;99.90;;;;;;5112935;28;20028;-73
2022/08/06 02:22:37;;;;;;;9.63;7.78;;;19.70;99.90;;;;;;5111085;28;20042;-74
2022/08/06 02:25:08;;;;;;;9.98;7.85;;;19.60;99.90;;;;;;5112623;28;20068;-74
2022/08/06 02:27:35;;;;;;;9.93;7.45;;;19.70;99.90;;;;;;5111115;28;20479;-73
2022/08/06 02:30:01;;;;;;;11.05;7.40;;;19.70;99.90;;;;;;5112575;28;20028;-73
2022/08/06 02:32:27;;;;;;;9.45;8.05;;;19.70;99.90;;;;;;5112410;28;20055;-73
2022/08/06 02:34:53;;;;;;;11.50;9.50;;;19.70;99.90;;;;;;5112879;28;20036;-73
2022/08/06 02:37:24;;;;;;;10.13;8.40;;;19.70;99.90;;;;;;5112646;28;20036;-73
2022/08/06 02:39:55;;;;;;;9.95;8.52;;;19.70;99.90;;;;;;5112855;28;20474;-73
2022/08/06 02:42:33;;;;;;;13.35;8.13;;;19.70;99.90;;;;;;5112305;28;20130;-74
2022/08/06 02:45:10;;;;;;;11.98;8.60;;;19.80;99.90;;;;;;5110754;28;20069;-73
2022/08/06 02:47:51;;;;;;;11.82;9.38;;;19.70;99.90;;;;;;5110621;28;20023;-73
2022/08/06 02:50:19;;;;;;;11.55;7.90;;;19.70;99.90;;;;;;5112110;28;20054;-72
2022/08/06 02:52:55;;;;;;;10.30;8.23;;;19.60;99.90;;;;;;5111828;28;20055;-73
2022/08/06 02:55:25;;;;;;;11.60;8.95;;;19.60;99.90;;;;;;5112101;28;20101;-72
2022/08/06 02:58:12;;;;;;;12.32;9.48;;;19.60;99.90;;;;;;5111908;28;20035;-73
2022/08/06 03:00:41;;;;;;;12.00;9.27;;;19.60;99.90;;;;;;5112043;28;20030;-73
2022/08/06 03:03:07;;;;;;;13.13;9.90;;;19.60;99.90;;;;;;5111967;28;20039;-73
2022/08/06 03:05:35;;;;;;;10.77;8.77;;;19.60;99.90;;;;;;5111948;28;20501;-73
2022/08/06 03:08:06;;;;;;;11.35;9.05;;;19.60;99.90;;;;;;5111956;28;20084;-74
2022/08/06 03:10:34;;;;;;;11.50;8.77;;;19.50;99.90;;;;;;5110506;28;20110;-73
2022/08/06 03:13:00;;;;;;;11.15;9.13;;;19.50;99.90;;;;;;5111697;28;20032;-73
2022/08/06 03:15:29;;;;;;;10.18;8.57;;;19.40;99.90;;;;;;5111879;28;20020;-74
2022/08/06 03:18:00;;;;;;;11.88;8.82;;;19.40;99.90;;;;;;5111706;28;20040;-72
2022/08/06 03:20:26;;;;;;;12.57;9.07;;;19.40;99.90;;;;;;5110280;28;20027;-71
2022/08/06 03:22:58;;;;;;;11.43;9.02;;;19.40;99.90;;;;;;5111527;28;20466;-72
2022/08/06 03:25:26;;;;;;;13.80;9.00;;;19.40;99.90;;;;;;5112027;28;20024;-74
2022/08/06 03:27:53;;;;;;;11.90;9.55;;;19.50;99.90;;;;;;5110323;28;20039;-73
2022/08/06 03:30:20;;;;;;;14.70;11.27;;;19.50;99.90;;;;;;5111697;28;20027;-73
2022/08/06 03:32:46;;;;;;;14.02;11.15;;;19.60;99.90;;;;;;5109997;28;20028;-74
2022/08/06 03:35:13;;;;;;;;;;;19.50;99.90;;;;;;5112070;28;20511;-73
2022/08/06 03:37:39;;;;;;;16.83;12.63;;;19.60;99.90;;;;;;5111484;28;19907;-72
2022/08/06 03:40:07;;;;;;;13.88;11.38;;;19.60;99.90;;;;;;5110244;28;20019;-73
2022/08/06 03:42:34;;;;;;;13.63;11.20;;;19.70;99.90;;;;;;5111431;28;20035;-74
2022/08/06 03:45:00;;;;;;;13.20;11.20;;;19.70;99.90;;;;;;5110065;28;20475;-73
2022/08/06 03:47:32;;;;;;;14.70;10.77;;;19.70;99.90;;;;;;5111430;28;20077;-73
2022/08/06 03:50:11;;;;;;;16.42;10.73;;;19.80;99.90;;;;;;5110119;28;20043;-75
2022/08/06 03:52:50;;;;;;;13.50;10.80;;;19.80;99.90;;;;;;5111308;28;20027;-73
2022/08/06 03:55:20;;;;;;;13.77;10.75;;;19.80;99.90;;;;;;5110788;28;20052;-74
2022/08/06 03:57:48;;;;;;;13.57;11.00;;;19.90;99.90;;;;;;5111185;28;20024;-72
2022/08/06 04:00:15;;;;;;;12.65;10.95;;;19.90;99.90;;;;;;5111158;28;20103;-73
2022/08/06 04:02:50;;;;;;;13.68;10.88;;;19.90;99.90;;;;;;5109439;28;20073;-73
2022/08/06 04:05:22;;;;;;;12.45;9.57;;;20.00;99.90;;;;;;5110845;28;20556;-73
2022/08/06 04:07:50;;;;;;;13.30;10.40;;;20.00;99.90;;;;;;5111037;28;20405;-72
2022/08/06 04:10:18;;;;;;;13.88;11.07;;;20.00;99.90;;;;;;5110993;28;20491;-72
2022/08/06 04:12:45;;;;;;;15.50;11.07;;;20.10;99.90;;;;;;5110777;28;20024;-72
2022/08/06 04:15:12;;;;;;;13.93;11.18;;;20.10;99.90;;;;;;5110857;28;20035;-72
2022/08/06 04:17:41;;;;;;;15.93;12.75;;;20.10;99.90;;;;;;5110885;28;20383;-73
2022/08/06 04:20:13;;;;;;;16.35;11.50;;;20.20;99.90;;;;;;5110909;28;20128;-73
2022/08/06 04:22:39;;;;;;;16.58;11.95;;;20.20;99.90;;;;;;5110482;28;20529;-72
2022/08/06 04:25:05;;;;;;;16.20;12.32;;;20.30;99.90;;;;;;5109314;28;20193;-73
2022/08/06 04:27:32;;;;;;;19.17;15.23;;;20.30;99.90;;;;;;5110784;28;20038;-74
2022/08/06 04:30:00;;;;;;;22.25;16.50;;;20.40;99.90;;;;;;5110850;28;20032;-74
2022/08/06 04:32:26;;;;;;;17.17;14.10;;;20.40;99.90;;;;;;5109322;28;20535;-74
2022/08/06 04:34:53;;;;;;;16.85;13.65;;;20.30;99.90;;;;;;5111061;28;20388;-73
2022/08/06 04:37:19;;;;;;;;;;;20.40;99.90;;;;;;5111298;28;20595;-72
2022/08/06 04:39:45;;;;;;;14.68;12.18;;;20.50;99.90;;;;;;5111503;28;19920;-73
2022/08/06 04:42:11;;;;;;;15.75;12.10;;;20.50;99.90;;;;;;5109305;28;20030;-72
2022/08/06 04:44:38;;;;;;;13.57;11.38;;;20.60;99.90;;;;;;5111024;28;20032;-72
2022/08/06 04:47:04;;;;;;;13.38;10.27;;;20.70;99.90;;;;;;5110478;28;20399;-72
2022/08/06 04:49:30;;;;;;;15.25;11.25;;;20.70;99.90;;;;;;5111049;28;20032;-72
2022/08/06 04:51:56;;;;;;;14.98;10.52;;;20.70;99.90;;;;;;5109429;28;20527;-72
2022/08/06 04:54:22;;;;;;;14.93;10.67;;;20.80;99.90;;;;;;5110635;28;20122;-72
2022/08/06 04:56:47;;;;;;;17.17;10.13;;;20.80;99.90;;;;;;5109257;28;20475;-72
2022/08/06 04:59:13;;;;;;;12.17;10.33;;;20.90;99.90;;;;;;5110568;28;20391;-72
2022/08/06 05:01:39;;;;;;;16.27;10.20;;;20.90;99.90;;;;;;5110285;28;20027;-73
2022/08/06 05:04:05;;;;;;;14.50;9.90;;;21.00;99.90;;;;;;5110622;28;20477;-73
2022/08/06 05:06:52;;;;;;;11.77;9.50;;;21.10;99.90;;;;;;5110812;28;20032;-73
2022/08/06 05:09:24;;;;;;;12.90;10.20;;;21.20;99.90;;;;;;5114720;28;20111;-73
2022/08/06 05:12:06;;;;;;;12.73;9.90;;;21.20;99.90;;;;;;5114232;28;20032;-73
2022/08/06 05:15:09;;;;;;;12.90;10.35;;;21.20;99.90;;;;;;5112925;28;20120;-73
2022/08/06 05:17:40;;;;;;;11.50;9.80;;;21.30;99.90;;;;;;5112433;28;20415;-72
2022/08/06 05:20:26;;;;;;;16.60;11.00;;;21.40;99.90;;;;;;5112732;28;20118;-75
2022/08/06 05:23:03;;;;;;;14.75;12.45;;;21.40;99.90;;;;;;5113841;28;20541;-72
2022/08/06 05:25:29;;;;;;;13.83;11.17;;;21.50;99.90;;;;;;5113823;28;20019;-72
2022/08/06 05:27:55;;;;;;;13.93;11.25;;;21.40;99.90;;;;;;5113531;28;20487;-72
2022/08/06 05:30:20;;;;;;;15.57;11.75;;;21.50;99.90;;;;;;5112166;28;20056;-73
2022/08/06 05:32:49;;;;;;;15.60;12.07;;;21.50;99.90;;;;;;5112205;28;20081;-73
2022/08/06 05:35:15;;;;;;;12.80;10.90;;;21.60;99.90;;;;;;5112243;28;20252;-72
2022/08/06 05:37:40;;;;;;;12.03;10.73;;;21.60;99.90;;;;;;5113427;28;20043;-72
2022/08/06 05:40:08;;;;;;;12.80;10.07;;;21.60;99.90;;;;;;5113357;28;20152;-72
2022/08/06 05:42:34;;;;;;;13.23;10.30;;;21.70;99.90;;;;;;5112009;28;20794;-74
2022/08/06 05:45:00;;;;;;;14.75;11.15;;;21.80;99.90;;;;;;5113206;28;20020;-73
2022/08/06 05:47:31;;;;;;;12.27;10.48;;;21.90;99.90;;;;;;5112024;28;20030;-73
2022/08/06 05:50:20;;;;;;;13.93;11.32;;;21.80;99.90;;;;;;5111904;28;20028;-72
2022/08/06 05:52:53;;;;;;;13.75;11.65;;;22.00;99.90;;;;;;5113214;28;20028;-74
2022/08/06 05:55:30;;;;;;;13.90;11.13;;;22.10;99.90;;;;;;5113035;28;20130;-72
2022/08/06 05:58:02;;;;;;;15.02;11.95;;;22.20;99.90;;;;;;5112890;28;20032;-73
2022/08/06 06:00:32;;;;;;;13.80;11.73;;;22.20;99.90;;;;;;5113163;28;20098;-73
2022/08/06 06:03:00;;;;;;;13.70;11.30;;;22.20;99.90;;;;;;5112964;28;20023;-72
2022/08/06 06:05:26;;;;;;;14.23;10.52;;;22.30;99.90;;;;;;5112965;28;20020;-72
2022/08/06 06:07:52;;;;;;;14.95;10.80;;;22.40;99.90;;;;;;5111527;28;20574;-72
2022/08/06 06:10:18;;;;;;;13.35;10.40;;;22.50;99.90;;;;;;5113060;28;20036;-72
2022/08/06 06:12:45;;;;;;;11.15;8.63;;;22.60;99.90;;;;;;5112569;28;20379;-71
2022/08/06 06:15:13;;;;;;;18.33;9.98;;;22.60;99.90;;;;;;5112877;28;20313;-73
2022/08/06 06:18:03;;;;;;;12.20;9.43;;;22.70;99.90;;;;;;5112605;28;20081;-71
2022/08/06 06:20:45;;;;;;;11.48;9.60;;;22.70;99.90;;;;;;5110699;28;20387;-73
2022/08/06 06:23:27;;;;;;;12.95;9.43;;;22.70;99.90;;;;;;5111181;28;20028;-73
2022/08/06 06:26:01;;;;;;;10.25;8.68;;;22.80;99.90;;;;;;5112345;28;20020;-72
2022/08/06 06:28:34;;;;;;;12.02;8.77;;;22.90;99.90;;;;;;5111073;28;20024;-72
2022/08/06 06:31:14;;;;;;;12.32;9.27;;;23.00;99.90;;;;;;5112402;27;20045;-73
2022/08/06 06:33:53;;;;;;;11.45;9.55;;;23.20;99.90;;;;;;5112782;28;20101;-73
2022/08/06 06:36:28;;;;;;;13.30;10.35;;;23.30;99.90;;;;;;5111068;28;20027;-72
2022/08/06 06:39:11;;;;;;;12.73;9.48;;;23.30;99.90;;;;;;5112545;28;20024;-73
2022/08/06 06:41:43;;;;;;;11.93;9.75;;;23.40;99.90;;;;;;5112045;28;20035;-73
2022/08/06 06:44:24;;;;;;;12.85;10.15;;;23.50;99.90;;;;;;5112391;28;20032;-72
2022/08/06 06:47:07;;;;;;;12.82;9.50;;;23.50;99.90;;;;;;5110730;28;20078;-73
2022/08/06 06:49:46;;;;;;;12.93;11.32;;;23.60;99.90;;;;;;5112510;28;20028;-73
2022/08/06 06:52:28;;;;;;;11.63;9.15;;;23.70;99.90;;;;;;5112020;28;20398;-73
2022/08/06 06:55:08;;;;;;;12.10;10.35;;;23.80;99.90;;;;;;5110677;28;20051;-72
2022/08/06 06:57:38;;;;;;;11.57;10.13;;;23.90;99.90;;;;;;5111032;28;20064;-72
2022/08/06 07:00:05;;;;;;;11.73;9.80;;;23.90;99.90;;;;;;5110504;28;20099;-72
2022/08/06 07:02:35;;;;;;;12.35;10.73;;;24.00;99.90;;;;;;5111594;28;20030;-72
2022/08/06 07:05:03;;;;;;;12.52;9.75;;;24.00;99.90;;;;;;5110195;28;20440;-74
2022/08/06 07:07:33;;;;;;;11.65;9.85;;;24.20;99.90;;;;;;5111798;28;20490;-72
2022/08/06 07:10:00;;;;;;;10.60;9.27;;;24.20;99.90;;;;;;5110341;28;20034;-72
2022/08/06 07:12:27;;;;;;;11.75;9.88;;;24.20;99.90;;;;;;5110117;28;20364;-73
2022/08/06 07:14:55;;;;;;;12.65;10.60;;;24.20;99.90;;;;;;5111950;28;20040;-73
2022/08/06 07:17:23;;;;;;;12.68;10.00;;;24.20;99.90;;;;;;5109995;28;20031;-72
2022/08/06 07:19:52;;;;;;;12.15;9.88;;;24.20;99.90;;;;;;5112069;28;20027;-73
2022/08/06 07:22:20;;;;;;;12.93;10.05;;;24.30;99.90;;;;;;5111444;28;20024;-72
2022/08/06 07:24:46;;;;;;;12.30;9.80;;;24.30;99.90;;;;;;5111905;27;20028;-72
2022/08/06 07:27:13;;;;;;;;;;;24.40;99.90;;;;;;5112228;28;20055;-73
2022/08/06 07:29:40;;;;;;;14.20;10.43;;;24.50;99.90;;;;;;5111734;28;19922;-73
2022/08/06 07:32:08;;;;;;;10.45;9.35;;;24.60;99.90;;;;;;5109726;28;20031;-72
2022/08/06 07:34:34;;;;;;;11.07;9.77;;;24.80;99.90;;;;;;5111961;28;20421;-73
2022/08/06 07:37:01;;;;;;;11.73;10.02;;;25.00;99.90;;;;;;5111149;28;20040;-74
2022/08/06 07:39:36;;;;;;;12.30;9.90;;;25.10;99.90;;;;;;5109797;28;20089;-73
2022/08/06 07:42:08;;;;;;;11.13;9.70;;;25.20;99.90;;;;;;5109489;28;20024;-73
2022/08/06 07:44:39;;;;;;;10.45;9.35;;;25.30;99.90;;;;;;5111581;28;20402;-73
2022/08/06 07:47:06;;;;;;;12.95;10.25;;;25.40;99.90;;;;;;5110960;28;20019;-74
2022/08/06 07:49:41;;;;;;;12.32;10.18;;;25.50;99.90;;;;;;5109802;28;20035;-74
2022/08/06 07:52:11;;;;;;;11.75;9.18;;;25.60;99.90;;;;;;5111046;28;20032;-73
2022/08/06 07:54:38;;;;;;;11.90;10.25;;;25.70;99.90;;;;;;5111206;28;20075;-73
2022/08/06 07:57:05;;;;;;;11.30;9.15;;;25.80;99.90;;;;;;5111043;28;20023;-73
2022/08/06 07:59:32;;;;;;;11.95;9.50;;;26.00;99.90;;;;;;5109427;28;20127;-73
2022/08/06 08:02:00;;;;;;;12.38;9.07;;;26.10;99.90;;;;;;5109181;28;20024;-75
2022/08/06 08:07:11;;;;;;;12.05;9.20;;;26.30;99.90;;;;;;5111005;28;20429;-73
2022/08/06 08:09:38;;;;;;;11.07;9.45;;;26.30;99.90;;;;;;5110757;28;20036;-73
2022/08/06 08:12:06;;;;;;;12.60;8.55;;;26.40;99.90;;;;;;5109626;28;20054;-74
2022/08/06 08:14:33;;;;;;;10.32;9.02;;;26.50;99.90;;;;;;5110942;28;20732;-74
2022/08/06 08:16:59;;;;;;;10.00;8.90;;;26.60;99.90;;;;;;5110766;28;20391;-72
2022/08/06 08:19:33;;;;;;;12.00;9.10;;;26.70;99.90;;;;;;5110944;28;20035;-72
2022/08/06 08:21:59;;;;;;;10.63;9.05;;;26.90;99.90;;;;;;5109077;28;20024;-72
2022/08/06 08:24:26;;;;;;;;;;;26.90;99.90;;;;;;5109600;28;20031;-73
2022/08/06 08:26:53;;;;;;;10.48;8.95;;;26.80;99.90;;;;;;5110830;28;20387;-73
2022/08/06 08:29:18;;;;;;;;;;;26.90;99.90;;;;;;5111389;28;20024;-72
2022/08/06 08:31:44;;;;;;;10.25;8.65;;;27.00;99.90;;;;;;5110605;28;19952;-71
2022/08/06 08:34:11;;;;;;;13.33;8.47;;;27.20;99.90;;;;;;5110959;28;20052;-72
2022/08/06 08:36:37;;;;;;;13.23;9.00;;;27.40;99.90;;;;;;5110542;28;20026;-71
2022/08/06 08:39:04;;;;;;;10.48;9.10;;;27.70;99.90;;;;;;5109135;28;20036;-73
2022/08/06 08:42:06;;;;;;;12.27;8.77;;;28.00;99.90;;;;;;5110537;28;20031;-73
2022/08/06 08:44:33;;;;;;;14.60;8.95;;;28.10;99.90;;;;;;5113494;28;20070;-73
2022/08/06 08:46:59;;;;;;;;;;;28.10;99.90;;;;;;5113759;28;20016;-75
2022/08/06 08:49:38;;;;;;;10.88;8.88;;;28.20;99.90;;;;;;5113393;28;20385;-75
2022/08/06 08:52:06;;;;;;;78.22;17.70;;;28.50;99.90;;;;;;5114379;28;20470;-73
2022/08/06 08:54:35;;;;;;;9.82;8.82;;;28.80;99.90;;;;;;5113172;28;20468;-73
2022/08/06 08:57:02;;;;;;;15.02;9.27;;;29.00;99.90;;;;;;5114553;28;20066;-74
2022/08/06 08:59:30;;;;;;;11.13;9.15;;;29.30;99.90;;;;;;5113396;28;20032;-75
2022/08/06 09:01:56;;;;;;;10.88;8.45;;;29.30;99.90;;;;;;5114745;28;20027;-76
2022/08/06 09:04:22;;;;;;;12.07;9.38;;;29.30;99.90;;;;;;5113682;28;20051;-77
2022/08/06 09:06:47;;;;;;;9.77;8.73;;;29.10;99.90;;;;;;5114845;28;20031;-76
2022/08/06 09:09:13;;;;;;;9.30;8.30;;;29.00;99.90;;;;;;5113361;28;20031;-76
2022/08/06 09:11:39;;;;;;;9.10;8.13;;;29.10;99.90;;;;;;5113089;28;20035;-76
2022/08/06 09:14:09;;;;;;;10.57;9.20;;;28.70;99.90;;;;;;5113427;28;20467;-77
2022/08/06 09:16:36;;;;;;;10.95;8.98;;;28.70;99.90;;;;;;5113357;28;20035;-77
2022/08/06 09:19:03;;;;;;;11.05;9.40;;;28.70;99.90;;;;;;5114533;28;20091;-78
2022/08/06 09:21:29;;;;;;;9.75;8.75;;;28.90;99.90;;;;;;5113325;28;20050;-76
2022/08/06 09:23:56;;;;;;;10.85;9.13;;;29.10;99.90;;;;;;5113473;28;20027;-79
2022/08/06 09:26:22;;;;;;;12.00;9.27;;;29.40;99.90;;;;;;5114673;28;20027;-79
2022/08/06 09:28:48;;;;;;;10.35;9.32;;;29.50;99.90;;;;;;5114480;28;20402;-76
2022/08/06 09:31:18;;;;;;;;;;;29.70;99.90;;;;;;5113998;28;20023;-74
2022/08/06 09:34:03;;;;;;;8.85;7.95;;;29.80;99.90;;;;;;5112286;28;19920;-73
2022/08/06 09:36:41;;;;;;;10.23;8.45;;;29.80;99.90;;;;;;5113442;27;20034;-73
2022/08/06 09:39:07;;;;;;;10.52;8.60;;;29.70;99.90;;;;;;5113644;28;20035;-73
2022/08/06 09:41:34;;;;;;;9.52;8.57;;;29.70;99.90;;;;;;5113332;28;20038;-71
2022/08/06 09:44:09;;;;;;;10.52;8.57;;;29.40;99.90;;;;;;5113399;27;20112;-72
2022/08/06 09:46:46;;;;;;;9.27;8.18;;;29.20;99.90;;;;;;5113115;28;20024;-73
2022/08/06 09:49:14;;;;;;;9.55;8.20;;;29.30;99.90;;;;;;5112952;28;20032;-73
2022/08/06 09:51:41;;;;;;;9.82;8.00;;;29.40;99.90;;;;;;5113105;28;20032;-72
2022/08/06 09:54:09;;;;;;;10.50;8.65;;;29.50;99.90;;;;;;5112106;28;20024;-72
2022/08/06 09:56:36;;;;;;;10.25;8.88;;;29.50;99.90;;;;;;5111777;28;20092;-72
2022/08/06 09:59:03;;;;;;;;;;;29.50;99.90;;;;;;5113705;28;20483;-73
2022/08/06 10:01:36;;;;;;;9.23;8.13;;;29.60;99.90;;;;;;5111493;28;19911;-72
2022/08/06 10:04:02;;;;;;;9.38;8.27;;;29.60;99.90;;;;;;5113249;28;20028;-72
2022/08/06 10:06:28;;;;;;;9.07;8.18;;;29.60;99.90;;;;;;5113015;28;20023;-73
2022/08/06 10:09:12;;;;;;;8.83;7.87;;;29.70;99.90;;;;;;5111946;28;20027;-75
2022/08/06 10:11:40;;;;;;;12.38;8.65;;;29.80;99.90;;;;;;5113384;28;20256;-76
2022/08/06 10:14:19;;;;;;;10.57;8.35;;;30.10;99.90;;;;;;5114136;27;20030;-76
2022/08/06 10:17:15;;;;;;;9.60;7.90;;;30.50;99.90;;;;;;5111763;28;20043;-75
2022/08/06 10:19:43;;;;;;;9.55;8.00;;;30.20;99.90;;;;;;5111602;28;20498;-76
2022/08/06 10:22:10;;;;;;;9.68;8.18;;;29.70;99.90;;;;;;5112836;28;20491;-77
2022/08/06 10:24:39;;;;;;;10.98;7.80;;;29.80;99.90;;;;;;5113357;28;20440;-77
2022/08/06 10:27:11;;;;;;;10.13;8.15;;;30.00;99.90;;;;;;5111458;28;20032;-77
2022/08/06 10:30:09;;;;;;;14.73;8.05;;;30.40;99.90;;;;;;5111951;28;20047;-76
2022/08/06 10:32:46;;;;;;;8.85;7.05;;;30.70;99.90;;;;;;5103658;28;20526;-75
2022/08/06 10:35:17;;;;;;;9.52;7.93;;;30.90;99.90;;;;;;5111394;28;20131;-75
2022/08/06 10:37:46;;;;;;;7.85;6.97;;;30.70;99.90;;;;;;5112542;28;20455;-76
2022/08/06 10:40:14;;;;;;;9.55;7.50;;;30.40;99.90;;;;;;5111697;28;20031;-77
2022/08/06 10:42:40;;;;;;;8.60;7.70;;;30.70;99.90;;;;;;5110935;28;20479;-74
2022/08/06 10:45:09;;;;;;;8.85;6.88;;;30.90;99.90;;;;;;5112274;28;20084;-75
2022/08/06 10:47:36;;;;;;;8.38;6.97;;;30.90;99.90;;;;;;5112236;28;20028;-73
2022/08/06 10:50:02;;;;;;;8.45;7.55;;;30.70;99.90;;;;;;5112102;28;20032;-75
2022/08/06 10:52:28;;;;;;;7.85;7.05;;;31.00;99.90;;;;;;5110856;28;20024;-75
2022/08/06 10:54:56;;;;;;;;;;;31.40;99.90;;;;;;5112716;28;20069;-74
2022/08/06 10:57:22;;;;;;;6.82;5.85;;;31.70;99.60;;;;;;5110740;28;19904;-74
2022/08/06 10:59:47;;;;;;;;;;;31.80;99.20;;;;;;5112975;28;20058;-74
2022/08/06 11:02:41;;;;;;;8.35;6.72;;;31.90;98.70;;;;;;5110280;28;19907;-75
2022/08/06 11:05:12;;;;;;;8.38;6.50;;;31.80;97.60;;;;;;5111519;28;20176;-74
2022/08/06 11:08:08;;;;;;;10.52;6.53;;;31.50;97.30;;;;;;5110318;28;20027;-73
2022/08/06 11:11:01;;;;;;;8.18;6.35;;;31.40;98.50;;;;;;5111681;28;20035;-73
2022/08/06 11:13:49;;;;;;;7.95;6.80;;;31.70;98.40;;;;;;5110348;28;20122;-73
2022/08/06 11:16:26;;;;;;;8.23;6.90;;;32.10;98.60;;;;;;5111519;28;20033;-73
2022/08/06 11:19:07;;;;;;;9.10;6.60;;;32.50;98.10;;;;;;5111366;28;20601;-74
2022/08/06 11:21:38;;;;;;;8.10;6.13;;;32.80;97.50;;;;;;5110023;28;20153;-72
2022/08/06 11:24:05;;;;;;;8.40;7.05;;;33.00;96.40;;;;;;5111689;28;20035;-73
2022/08/06 11:26:36;;;;;;;8.05;7.25;;;33.00;95.80;;;;;;5110423;28;20104;-72
2022/08/06 11:29:03;;;;;;;8.38;6.70;;;33.10;96.30;;;;;;5109681;28;20479;-72
2022/08/06 11:31:34;;;;;;;8.88;6.90;;;33.10;95.90;;;;;;5110317;28;20031;-71
2022/08/06 11:34:03;;;;;;;8.18;6.90;;;33.10;95.50;;;;;;5111403;28;20027;-72
2022/08/06 11:36:53;;;;;;;9.07;7.22;;;33.00;95.20;;;;;;5111281;28;20024;-72
2022/08/06 11:39:20;;;;;;;9.82;6.60;;;33.10;94.90;;;;;;5110043;28;20081;-72
2022/08/06 11:42:04;;;;;;;7.13;6.43;;;32.70;95.10;;;;;;5110970;28;20486;-72
2022/08/06 11:44:32;;;;;;;8.40;6.30;;;32.70;95.10;;;;;;5109624;28;20126;-74
2022/08/06 11:47:10;;;;;;;7.18;6.10;;;32.90;94.90;;;;;;5110963;28;20023;-72
2022/08/06 11:49:36;;;;;;;7.85;5.93;;;33.10;95.10;;;;;;5111285;28;20131;-72
2022/08/06 11:52:02;;;;;;;8.43;6.25;;;33.00;93.90;;;;;;5110842;28;20034;-75
2022/08/06 11:54:32;;;;;;;8.38;6.45;;;32.80;94.00;;;;;;5111197;28;20503;-72
2022/08/06 11:57:06;;;;;;;7.40;6.53;;;32.60;94.40;;;;;;5111106;28;20030;-73
2022/08/06 11:59:37;;;;;;;8.43;6.80;;;32.40;94.40;;;;;;5110692;28;20028;-73
2022/08/06 12:02:09;;;;;;;7.38;6.57;;;32.30;94.60;;;;;;5109322;28;20470;-72
2022/08/06 12:04:34;;;;;;;8.52;6.40;;;32.10;94.90;;;;;;5111285;28;20069;-73
2022/08/06 12:07:24;;;;;;;7.05;6.20;;;31.90;95.10;;;;;;5110722;28;20059;-73
2022/08/06 12:09:59;;;;;;;6.95;6.13;;;31.80;95.50;;;;;;5111094;28;20244;-74
2022/08/06 12:12:25;;;;;;;7.38;6.03;;;31.80;95.40;;;;;;5109221;28;20034;-74
2022/08/06 12:14:51;;;;;;;;;;;32.00;95.80;;;;;;5111420;28;20053;-73
2022/08/06 12:17:22;;;;;;;8.38;6.45;;;32.20;95.00;;;;;;5110144;28;19904;-74
2022/08/06 12:19:53;;;;;;;7.38;6.00;;;32.40;94.60;;;;;;5109665;28;20035;-73
2022/08/06 12:22:20;;;;;;;8.27;6.05;;;32.20;94.20;;;;;;5110504;28;20111;-74
2022/08/06 12:24:50;;;;;;;8.88;6.60;;;31.70;94.80;;;;;;5111063;28;20063;-73
2022/08/06 12:27:17;;;;;;;8.68;6.43;;;31.10;95.40;;;;;;5111073;28;20058;-74
2022/08/06 12:29:43;;;;;;;8.82;6.15;;;30.60;95.90;;;;;;5109333;28;20035;-73
2022/08/06 12:32:32;;;;;;;7.00;5.78;;;30.20;96.60;;;;;;5108953;28;20027;-74
2022/08/06 12:35:00;;;;;;;7.55;6.00;;;30.10;97.00;;;;;;5109032;28;20551;-74
2022/08/06 12:37:33;;;;;;;7.80;6.00;;;30.00;96.80;;;;;;5110577;28;20016;-74
2022/08/06 12:42:44;;;;;;;7.28;5.85;;;30.20;96.70;;;;;;5110650;28;20066;-75
2022/08/06 12:45:10;;;;;;;9.18;6.43;;;30.30;96.80;;;;;;5109124;28;20036;-75
2022/08/06 12:47:36;;;;;;;8.25;6.25;;;30.20;96.80;;;;;;5110615;28;20080;-74
2022/08/06 12:50:19;;;;;;;11.65;6.30;;;30.20;97.20;;;;;;5110662;28;20020;-74
2022/08/06 12:53:11;;;;;;;7.85;6.35;;;30.10;97.00;;;;;;5110712;28;20023;-73
2022/08/06 12:55:44;;;;;;;7.25;6.28;;;30.00;97.40;;;;;;5108631;28;20406;-75
2022/08/06 12:58:11;;;;;;;7.43;6.13;;;29.90;97.70;;;;;;5109184;28;20035;-74
2022/08/06 13:00:38;;;;;;;7.55;6.40;;;29.90;97.80;;;;;;5109257;28;20411;-74
2022/08/06 13:03:05;;;;;;;7.05;6.18;;;29.90;97.80;;;;;;5110150;28;20035;-74